Airfield :
LOGIN :

Register | Disclaimer

   EN    FR    IT 

 










Legend :    VFR   Marginal VFR   IFR   Intensive IFR   Very Intensive IFR
Visi :
Ceiling :
>= 8 km
>= 3000ft
5 to 8 km
1000 to 3000 ft
1500m to 5 km
500 to 1000 ft
800 to 1500m
200 to 500 ft
< 800m
< 200 ft
Symbols :   Thunderstorms  Fog  Heavy snow  Heavy precipitations  Wind > 20 kt
SIGMETs :     Misc.  Thunderstorms  Icing  Turbulence  Mountain Waves  Volcanic Ashes







- Airport Elevation : 25 ft
- IATA code : QCY


EGXC - RAF Coningsby

CURRENT METAR :
  • 200834Z 28010KT 9999 BKN008 13/11 Q0999 GRN NOSIG

EXPIRED METARs :
  • 200750Z 26008KT 9999 FEW004 SCT006 BKN012 12/12 Q0998 YLO1 BECMG 9999 NSW BKN008 GRN
  • 200650Z 21003KT 5000 -RADZ BKN003 12/11 Q0996 YLO2 BECMG 9999 NSW BKN008 GRN
  • 200550Z 17005KT 4000 -RADZ SCT004 OVC010 12/11 Q0996 YLO2 TEMPO 6000 -RA BKN008 GRN

TAF TAF EGXC
Valid from the 20 at 09:00 until the 21 at 03:00 UTC


200755Z 2009/2103 26012KT 9999 BKN008
BECMG 2010/2013 FEW020 BKN030
PROB40
TEMPO 2010/2013 7000 SHRA
PROB30
TEMPO 2010/2017 26015G25KT
TEMPO 2013/2017 BKN020
TEMPO 2023/2102 7000 RA SCT008 BKN018
No reported NOTAMs for that airfield.
2 SIGMETs reported for the London FIR (EGTT) :
 
Severe turbulence
EGTT SIGMET 03 VALID 200700/201100 EGRR
EGTT LONDON FIR SEV TURB OBS WI N5130 E00200 - N5107 E00200 - N5100 E00128 - N5040 E00128 - N5012 E00017 - N5440 W00420 - N5438 W00126 - N5139 E00207 - N5130 E00200 FL250/370 MOV E 20KT NC=
Severe turbulence
EGTT SIGMET 02 VALID 200730/201130 EGRR
EGTT LONDON FIR SEV TURB FCST S OF LINE N4937 W00800 - N5125 E00200 SFC/FL060 MOV ESE 15KT NC=



MET'MAP, your aeronautical weather chart ! - Copyright ORBIFLY December 2007 - Disclaimer

ORBIFLY MET'MAP TEAM :

Programming & Development : Alexandra Zaïnal
Concept & Development : Baudouin d'Aumeries
Co-Development & Prog : Marc-Olivier Méhu
Technical & hardware support : Manuel Goepfert

Contact : metmap@orbifly.com




SOURCES & CREDITS :

   NOAA